Terminal Aerodrome Forecast
Issued by NWS

Current Version | Previous Version | Text Only | Print | Product List | Glossary On
Versions: 1 2 3 4 5 6 7 8 9 10 11 12 13 14 15 16
506
FTUS43 KFGF 240520
TAFBJI
TAF
KBJI 240520Z 2406/2506 29009KT P6SM SCT035 BKN040
     FM241500 29010G18KT P6SM BKN030
     FM241800 29012G22KT P6SM BKN025=

USA.gov is the U.S. government's official web portal to all federal, state and local government web resources and services.